sensor_id;sensor_type;location;lat;lon;timestamp;pressure;altitude;pressure_sealevel;temperature;humidity
53550;BME280;67273;52.914;-0.982;2023-04-29T00:01:31;101467.44;;;18.75;45.41
53550;BME280;67273;52.914;-0.982;2023-04-29T00:03:57;101471.19;;;18.74;45.44
53550;BME280;67273;52.914;-0.982;2023-04-29T00:06:23;101477.50;;;18.74;45.40
53550;BME280;67273;52.914;-0.982;2023-04-29T00:08:48;101479.56;;;18.72;45.33
53550;BME280;67273;52.914;-0.982;2023-04-29T00:11:16;101479.56;;;18.72;45.34
53550;BME280;67273;52.914;-0.982;2023-04-29T00:13:42;101484.19;;;18.72;45.46
53550;BME280;67273;52.914;-0.982;2023-04-29T00:16:08;101488.81;;;18.71;45.45
53550;BME280;67273;52.914;-0.982;2023-04-29T00:18:37;101480.84;;;18.70;45.50
53550;BME280;67273;52.914;-0.982;2023-04-29T00:21:04;101483.56;;;18.70;45.29
53550;BME280;67273;52.914;-0.982;2023-04-29T00:23:32;101489.25;;;18.68;45.33
53550;BME280;67273;52.914;-0.982;2023-04-29T00:25:58;101490.31;;;18.67;45.43
53550;BME280;67273;52.914;-0.982;2023-04-29T00:28:23;101495.75;;;18.67;45.39
53550;BME280;67273;52.914;-0.982;2023-04-29T00:30:49;101490.31;;;18.67;45.41
53550;BME280;67273;52.914;-0.982;2023-04-29T00:33:15;101494.91;;;18.67;45.53
53550;BME280;67273;52.914;-0.982;2023-04-29T00:35:42;101496.78;;;18.66;45.36
53550;BME280;67273;52.914;-0.982;2023-04-29T00:38:08;101494.06;;;18.66;45.42
53550;BME280;67273;52.914;-0.982;2023-04-29T00:40:34;101495.09;;;18.65;45.41
53550;BME280;67273;52.914;-0.982;2023-04-29T00:43:00;101499.72;;;18.65;45.40
53550;BME280;67273;52.914;-0.982;2023-04-29T00:45:26;101498.06;;;18.64;45.48
53550;BME280;67273;52.914;-0.982;2023-04-29T00:47:52;101488.22;;;18.62;45.45
53550;BME280;67273;52.914;-0.982;2023-04-29T00:50:18;101491.78;;;18.63;45.56
53550;BME280;67273;52.914;-0.982;2023-04-29T00:52:46;101492.84;;;18.62;45.51
53550;BME280;67273;52.914;-0.982;2023-04-29T00:55:12;101493.88;;;18.61;45.49
53550;BME280;67273;52.914;-0.982;2023-04-29T00:57:39;101504.78;;;18.61;45.48
53550;BME280;67273;52.914;-0.982;2023-04-29T01:00:06;101508.53;;;18.60;45.49
53550;BME280;67273;52.914;-0.982;2023-04-29T01:02:31;101508.53;;;18.60;45.51
53550;BME280;67273;52.914;-0.982;2023-04-29T01:04:57;101505.19;;;18.58;45.56
53550;BME280;67273;52.914;-0.982;2023-04-29T01:07:29;101506.88;;;18.59;45.55
53550;BME280;67273;52.914;-0.982;2023-04-29T01:10:02;101507.94;;;18.58;45.44
53550;BME280;67273;52.914;-0.982;2023-04-29T01:12:32;101509.81;;;18.57;45.60
53550;BME280;67273;52.914;-0.982;2023-04-29T01:15:04;101505.41;;;18.56;45.62
53550;BME280;67273;52.914;-0.982;2023-04-29T01:17:38;101500.84;;;18.57;45.45
53550;BME280;67273;52.914;-0.982;2023-04-29T01:20:08;101503.56;;;18.57;45.56
53550;BME280;67273;52.914;-0.982;2023-04-29T01:22:35;101509.22;;;18.55;45.43
53550;BME280;67273;52.914;-0.982;2023-04-29T01:25:03;101505.66;;;18.55;45.54
53550;BME280;67273;52.914;-0.982;2023-04-29T01:27:34;101511.09;;;18.55;45.54
53550;BME280;67273;52.914;-0.982;2023-04-29T01:30:11;101502.28;;;18.53;45.62
53550;BME280;67273;52.914;-0.982;2023-04-29T01:32:50;101510.47;;;18.53;45.47
53550;BME280;67273;52.914;-0.982;2023-04-29T01:35:27;101506.09;;;18.52;45.72
53550;BME280;67273;52.914;-0.982;2023-04-29T01:38:00;101514.25;;;18.52;45.55
53550;BME280;67273;52.914;-0.982;2023-04-29T01:40:37;101504.41;;;18.51;45.45
53550;BME280;67273;52.914;-0.982;2023-04-29T01:43:13;101505.25;;;18.51;45.36
53550;BME280;67273;52.914;-0.982;2023-04-29T01:45:45;101508.81;;;18.52;45.46
53550;BME280;67273;52.914;-0.982;2023-04-29T01:48:16;101504.41;;;18.51;45.32
53550;BME280;67273;52.914;-0.982;2023-04-29T01:50:47;101508.19;;;18.50;45.27
53550;BME280;67273;52.914;-0.982;2023-04-29T01:53:17;101503.59;;;18.50;45.48
53550;BME280;67273;52.914;-0.982;2023-04-29T01:55:48;101500.03;;;18.50;45.37
53550;BME280;67273;52.914;-0.982;2023-04-29T01:58:22;101501.06;;;18.49;45.26
53550;BME280;67273;52.914;-0.982;2023-04-29T02:01:10;101501.06;;;18.49;45.27
53550;BME280;67273;52.914;-0.982;2023-04-29T02:03:39;101497.53;;;18.48;45.34
53550;BME280;67273;52.914;-0.982;2023-04-29T02:06:08;101493.97;;;18.48;45.20
53550;BME280;67273;52.914;-0.982;2023-04-29T02:08:35;101493.13;;;18.47;45.10
53550;BME280;67273;52.914;-0.982;2023-04-29T02:11:05;101502.16;;;18.48;45.26
53550;BME280;67273;52.914;-0.982;2023-04-29T02:13:39;101506.72;;;18.47;45.18
53550;BME280;67273;52.914;-0.982;2023-04-29T02:16:08;101506.13;;;18.45;45.29
53550;BME280;67273;52.914;-0.982;2023-04-29T02:18:39;101503.19;;;18.47;45.26
53550;BME280;67273;52.914;-0.982;2023-04-29T02:21:07;101501.50;;;18.46;45.28
53550;BME280;67273;52.914;-0.982;2023-04-29T02:23:36;101502.56;;;18.45;45.22
53550;BME280;67273;52.914;-0.982;2023-04-29T02:26:05;101503.59;;;18.43;45.11
53550;BME280;67273;52.914;-0.982;2023-04-29T02:28:36;101506.31;;;18.43;45.20
53550;BME280;67273;52.914;-0.982;2023-04-29T02:31:05;101505.28;;;18.45;45.09
53550;BME280;67273;52.914;-0.982;2023-04-29T02:33:34;101505.50;;;18.43;45.26
53550;BME280;67273;52.914;-0.982;2023-04-29T02:36:01;101501.97;;;18.42;45.12
53550;BME280;67273;52.914;-0.982;2023-04-29T02:38:26;101514.72;;;18.42;45.23
53550;BME280;67273;52.914;-0.982;2023-04-29T02:40:52;101507.41;;;18.42;45.09
53550;BME280;67273;52.914;-0.982;2023-04-29T02:43:19;101512.84;;;18.42;45.22
53550;BME280;67273;52.914;-0.982;2023-04-29T02:45:45;101516.59;;;18.41;45.17
53550;BME280;67273;52.914;-0.982;2023-04-29T02:48:11;101514.94;;;18.40;45.20
53550;BME280;67273;52.914;-0.982;2023-04-29T02:50:37;101509.50;;;18.40;45.14
53550;BME280;67273;52.914;-0.982;2023-04-29T02:53:03;101516.81;;;18.40;45.31
53550;BME280;67273;52.914;-0.982;2023-04-29T02:55:29;101513.25;;;18.39;45.04
53550;BME280;67273;52.914;-0.982;2023-04-29T02:57:59;101516.00;;;18.39;45.18
53550;BME280;67273;52.914;-0.982;2023-04-29T03:00:26;101518.72;;;18.39;45.28
53550;BME280;67273;52.914;-0.982;2023-04-29T03:02:52;101522.47;;;18.38;45.09
53550;BME280;67273;52.914;-0.982;2023-04-29T03:05:17;101523.31;;;18.39;45.35
53550;BME280;67273;52.914;-0.982;2023-04-29T03:07:43;101521.63;;;18.38;45.13
53550;BME280;67273;52.914;-0.982;2023-04-29T03:10:09;101520.81;;;18.37;45.23
53550;BME280;67273;52.914;-0.982;2023-04-29T03:12:36;101521.84;;;18.36;45.12
53550;BME280;67273;52.914;-0.982;2023-04-29T03:15:02;101519.13;;;18.36;45.12
53550;BME280;67273;52.914;-0.982;2023-04-29T03:17:29;101519.13;;;18.36;45.31
53550;BME280;67273;52.914;-0.982;2023-04-29T03:19:56;101513.91;;;18.35;45.16
53550;BME280;67273;52.914;-0.982;2023-04-29T03:22:22;101512.88;;;18.36;45.03
53550;BME280;67273;52.914;-0.982;2023-04-29T03:24:47;101513.91;;;18.35;45.08
53550;BME280;67273;52.914;-0.982;2023-04-29T03:27:14;101513.06;;;18.34;45.07
53550;BME280;67273;52.914;-0.982;2023-04-29T03:29:39;101514.13;;;18.33;45.05
53550;BME280;67273;52.914;-0.982;2023-04-29T03:32:05;101511.41;;;18.33;45.13
53550;BME280;67273;52.914;-0.982;2023-04-29T03:34:33;101517.06;;;18.32;45.08
53550;BME280;67273;52.914;-0.982;2023-04-29T03:37:19;101517.91;;;18.32;44.99
53550;BME280;67273;52.914;-0.982;2023-04-29T03:39:53;101517.06;;;18.32;45.03
53550;BME280;67273;52.914;-0.982;2023-04-29T03:42:19;101520.63;;;18.32;45.13
53550;BME280;67273;52.914;-0.982;2023-04-29T03:44:45;101521.66;;;18.31;45.16
53550;BME280;67273;52.914;-0.982;2023-04-29T03:47:11;101527.09;;;18.31;45.00
53550;BME280;67273;52.914;-0.982;2023-04-29T03:49:39;101519.16;;;18.30;44.99
53550;BME280;67273;52.914;-0.982;2023-04-29T03:52:06;101514.56;;;18.30;45.24
53550;BME280;67273;52.914;-0.982;2023-04-29T03:54:32;101525.44;;;18.30;45.18
53550;BME280;67273;52.914;-0.982;2023-04-29T03:56:58;101525.44;;;18.30;45.08
53550;BME280;67273;52.914;-0.982;2023-04-29T03:59:23;101524.59;;;18.30;45.04
53550;BME280;67273;52.914;-0.982;2023-04-29T04:01:51;101518.31;;;18.29;44.99
53550;BME280;67273;52.914;-0.982;2023-04-29T04:04:18;101515.00;;;18.27;45.20
53550;BME280;67273;52.914;-0.982;2023-04-29T04:06:48;101512.28;;;18.27;45.05
53550;BME280;67273;52.914;-0.982;2023-04-29T04:09:19;101512.28;;;18.27;45.02
53550;BME280;67273;52.914;-0.982;2023-04-29T04:11:45;101514.16;;;18.27;45.13
53550;BME280;67273;52.914;-0.982;2023-04-29T04:14:11;101517.72;;;18.27;45.10
53550;BME280;67273;52.914;-0.982;2023-04-29T04:16:37;101515.22;;;18.26;45.00
53550;BME280;67273;52.914;-0.982;2023-04-29T04:19:03;101514.38;;;18.25;45.09
53550;BME280;67273;52.914;-0.982;2023-04-29T04:21:34;101517.09;;;18.25;45.11
53550;BME280;67273;52.914;-0.982;2023-04-29T04:24:06;101523.38;;;18.26;45.07
53550;BME280;67273;52.914;-0.982;2023-04-29T04:26:32;101519.81;;;18.25;45.14
53550;BME280;67273;52.914;-0.982;2023-04-29T04:29:04;101520.03;;;18.23;44.90
53550;BME280;67273;52.914;-0.982;2023-04-29T04:31:42;101520.03;;;18.23;45.10
53550;BME280;67273;52.914;-0.982;2023-04-29T04:34:08;101520.84;;;18.24;44.98
53550;BME280;67273;52.914;-0.982;2023-04-29T04:36:34;101527.38;;;18.23;45.05
53550;BME280;67273;52.914;-0.982;2023-04-29T04:39:00;101535.31;;;18.24;44.96
53550;BME280;67273;52.914;-0.982;2023-04-29T04:41:27;101531.13;;;18.22;44.99
53550;BME280;67273;52.914;-0.982;2023-04-29T04:43:56;101540.09;;;18.22;44.90
53550;BME280;67273;52.914;-0.982;2023-04-29T04:46:37;101535.75;;;18.21;44.95
53550;BME280;67273;52.914;-0.982;2023-04-29T04:49:16;101550.16;;;18.22;45.09
53550;BME280;67273;52.914;-0.982;2023-04-29T04:51:51;101560.22;;;18.21;45.16
53550;BME280;67273;52.914;-0.982;2023-04-29T04:54:16;101561.25;;;18.20;44.97
53550;BME280;67273;52.914;-0.982;2023-04-29T04:56:44;101562.09;;;18.21;44.97
53550;BME280;67273;52.914;-0.982;2023-04-29T04:59:09;101574.03;;;18.20;45.02
53550;BME280;67273;52.914;-0.982;2023-04-29T05:01:37;101573.19;;;18.19;44.87
53550;BME280;67273;52.914;-0.982;2023-04-29T05:04:03;101581.16;;;18.21;45.28
53550;BME280;67273;52.914;-0.982;2023-04-29T05:06:30;101581.34;;;18.19;45.02
53550;BME280;67273;52.914;-0.982;2023-04-29T05:08:55;101578.63;;;18.19;44.96
53550;BME280;67273;52.914;-0.982;2023-04-29T05:11:24;101578.63;;;18.19;44.93
53550;BME280;67273;52.914;-0.982;2023-04-29T05:14:07;101576.13;;;18.18;44.93
53550;BME280;67273;52.914;-0.982;2023-04-29T05:16:33;101576.97;;;18.18;44.92
53550;BME280;67273;52.914;-0.982;2023-04-29T05:18:59;101588.66;;;18.19;44.97
53550;BME280;67273;52.914;-0.982;2023-04-29T05:21:29;101592.44;;;18.18;44.95
53550;BME280;67273;52.914;-0.982;2023-04-29T05:23:56;101592.44;;;18.18;44.91
53550;BME280;67273;52.914;-0.982;2023-04-29T05:26:22;101594.09;;;18.19;45.03
53550;BME280;67273;52.914;-0.982;2023-04-29T05:28:49;101592.44;;;18.18;44.98
53550;BME280;67273;52.914;-0.982;2023-04-29T05:31:19;101579.88;;;18.17;44.86
53550;BME280;67273;52.914;-0.982;2023-04-29T05:33:45;101586.16;;;18.17;44.98
53550;BME280;67273;52.914;-0.982;2023-04-29T05:36:11;101584.28;;;18.18;45.01
53550;BME280;67273;52.914;-0.982;2023-04-29T05:38:37;101590.75;;;18.17;45.00
53550;BME280;67273;52.914;-0.982;2023-04-29T05:41:04;101585.31;;;18.17;45.03
53550;BME280;67273;52.914;-0.982;2023-04-29T05:43:33;101587.00;;;18.18;44.97
53550;BME280;67273;52.914;-0.982;2023-04-29T05:45:59;101587.44;;;18.15;45.04
53550;BME280;67273;52.914;-0.982;2023-04-29T05:48:27;101594.31;;;18.17;44.92
53550;BME280;67273;52.914;-0.982;2023-04-29T05:50:54;101598.09;;;18.16;45.06
53550;BME280;67273;52.914;-0.982;2023-04-29T05:53:20;101603.31;;;18.18;44.98
53550;BME280;67273;52.914;-0.982;2023-04-29T05:55:47;101598.91;;;18.17;44.98
53550;BME280;67273;52.914;-0.982;2023-04-29T05:58:15;101610.41;;;18.19;44.85
53550;BME280;67273;52.914;-0.982;2023-04-29T06:00:41;101605.63;;;18.21;44.79
53550;BME280;67273;52.914;-0.982;2023-04-29T06:03:14;101607.91;;;18.24;44.70
53550;BME280;67273;52.914;-0.982;2023-04-29T06:05:42;101600.81;;;18.23;44.82
53550;BME280;67273;52.914;-0.982;2023-04-29T06:08:28;101606.66;;;18.27;44.59
53550;BME280;67273;52.914;-0.982;2023-04-29T06:11:02;101614.78;;;18.33;44.66
53550;BME280;67273;52.914;-0.982;2023-04-29T06:13:30;101607.88;;;18.37;44.56
53550;BME280;67273;52.914;-0.982;2023-04-29T06:15:56;101613.06;;;18.46;44.31
53550;BME280;67273;52.914;-0.982;2023-04-29T06:18:22;101610.72;;;18.56;44.37
53550;BME280;67273;52.914;-0.982;2023-04-29T06:20:50;101613.63;;;18.68;44.05
53550;BME280;67273;52.914;-0.982;2023-04-29T06:23:15;101608.56;;;18.78;43.91
53550;BME280;67273;52.914;-0.982;2023-04-29T06:25:42;101612.28;;;18.90;43.67
53550;BME280;67273;52.914;-0.982;2023-04-29T06:28:08;101617.66;;;19.04;43.48
53550;BME280;67273;52.914;-0.982;2023-04-29T06:30:35;101617.81;;;19.15;43.32
53550;BME280;67273;52.914;-0.982;2023-04-29T06:33:01;101622.97;;;19.24;43.14
53550;BME280;67273;52.914;-0.982;2023-04-29T06:35:27;101616.44;;;19.31;43.08
53550;BME280;67273;52.914;-0.982;2023-04-29T06:38:00;101627.13;;;19.33;43.27
53550;BME280;67273;52.914;-0.982;2023-04-29T06:40:46;101622.06;;;19.36;43.14
53550;BME280;67273;52.914;-0.982;2023-04-29T06:43:15;101630.63;;;19.40;43.20
53550;BME280;67273;52.914;-0.982;2023-04-29T06:45:44;101640.03;;;19.44;43.26
53550;BME280;67273;52.914;-0.982;2023-04-29T06:48:29;101630.78;;;19.45;43.26
53550;BME280;67273;52.914;-0.982;2023-04-29T06:50:56;101628.69;;;19.47;43.38
53550;BME280;67273;52.914;-0.982;2023-04-29T06:53:23;101646.69;;;19.48;43.24
53550;BME280;67273;52.914;-0.982;2023-04-29T06:55:49;101637.47;;;19.49;43.24
53550;BME280;67273;52.914;-0.982;2023-04-29T06:58:16;101648.16;;;19.51;43.36
53550;BME280;67273;52.914;-0.982;2023-04-29T07:00:43;101637.88;;;19.53;43.40
53550;BME280;67273;52.914;-0.982;2023-04-29T07:03:10;101643.31;;;19.53;43.38
53550;BME280;67273;52.914;-0.982;2023-04-29T07:05:35;101639.78;;;19.52;43.38
53550;BME280;67273;52.914;-0.982;2023-04-29T07:08:01;101638.69;;;19.53;43.37
53550;BME280;67273;52.914;-0.982;2023-04-29T07:10:29;101644.97;;;19.54;43.44
53550;BME280;67273;52.914;-0.982;2023-04-29T07:12:55;101644.75;;;19.55;43.55
53550;BME280;67273;52.914;-0.982;2023-04-29T07:15:21;101645.84;;;19.54;43.61
53550;BME280;67273;52.914;-0.982;2023-04-29T07:17:47;101642.88;;;19.56;43.56
53550;BME280;67273;52.914;-0.982;2023-04-29T07:20:13;101660.06;;;19.56;43.63
53550;BME280;67273;52.914;-0.982;2023-04-29T07:22:39;101650.81;;;19.57;43.54
53550;BME280;67273;52.914;-0.982;2023-04-29T07:25:05;101660.06;;;19.56;43.56
53550;BME280;67273;52.914;-0.982;2023-04-29T07:27:33;101661.72;;;19.57;43.66
53550;BME280;67273;52.914;-0.982;2023-04-29T07:29:59;101663.41;;;19.59;43.93
53550;BME280;67273;52.914;-0.982;2023-04-29T07:32:26;101667.19;;;19.57;43.71
53550;BME280;67273;52.914;-0.982;2023-04-29T07:34:52;101664.63;;;19.63;43.83
53550;BME280;67273;52.914;-0.982;2023-04-29T07:37:18;101667.56;;;19.61;43.88
53550;BME280;67273;52.914;-0.982;2023-04-29T07:39:43;101668.44;;;19.62;43.90
53550;BME280;67273;52.914;-0.982;2023-04-29T07:42:10;101672.19;;;19.61;43.90
53550;BME280;67273;52.914;-0.982;2023-04-29T07:44:37;101669.47;;;19.61;43.83
53550;BME280;67273;52.914;-0.982;2023-04-29T07:47:03;101666.75;;;19.61;43.89
53550;BME280;67273;52.914;-0.982;2023-04-29T07:49:28;101671.38;;;19.60;43.76
53550;BME280;67273;52.914;-0.982;2023-04-29T07:51:55;101673.03;;;19.61;43.92
53550;BME280;67273;52.914;-0.982;2023-04-29T07:54:20;101665.69;;;19.62;43.73
53550;BME280;67273;52.914;-0.982;2023-04-29T07:56:47;101658.56;;;19.61;44.00
53550;BME280;67273;52.914;-0.982;2023-04-29T07:59:13;101671.16;;;19.62;43.84
53550;BME280;67273;52.914;-0.982;2023-04-29T08:01:41;101667.56;;;19.61;43.78
53550;BME280;67273;52.914;-0.982;2023-04-29T08:04:06;101665.69;;;19.62;43.61
53550;BME280;67273;52.914;-0.982;2023-04-29T08:06:39;101670.28;;;19.61;43.74
53550;BME280;67273;52.914;-0.982;2023-04-29T08:09:09;101673.03;;;19.61;43.86
53550;BME280;67273;52.914;-0.982;2023-04-29T08:11:35;101668.44;;;19.62;43.73
53550;BME280;67273;52.914;-0.982;2023-04-29T08:14:03;101666.75;;;19.61;43.76
53550;BME280;67273;52.914;-0.982;2023-04-29T08:16:29;101671.38;;;19.60;43.85
53550;BME280;67273;52.914;-0.982;2023-04-29T08:18:56;101668.63;;;19.60;43.86
53550;BME280;67273;52.914;-0.982;2023-04-29T08:21:22;101667.81;;;19.60;43.88
53550;BME280;67273;52.914;-0.982;2023-04-29T08:23:47;101668.84;;;19.59;43.90
53550;BME280;67273;52.914;-0.982;2023-04-29T08:26:13;101666.97;;;19.59;43.96
53550;BME280;67273;52.914;-0.982;2023-04-29T08:28:39;101668.84;;;19.59;43.85
53550;BME280;67273;52.914;-0.982;2023-04-29T08:31:05;101661.72;;;19.57;43.84
53550;BME280;67273;52.914;-0.982;2023-04-29T08:33:32;101670.75;;;19.58;43.81
53550;BME280;67273;52.914;-0.982;2023-04-29T08:35:59;101660.06;;;19.56;43.86
53550;BME280;67273;52.914;-0.982;2023-04-29T08:38:28;101663.84;;;19.55;43.96
53550;BME280;67273;52.914;-0.982;2023-04-29T08:40:54;101663.84;;;19.55;43.92
53550;BME280;67273;52.914;-0.982;2023-04-29T08:43:21;101664.06;;;19.54;43.94
53550;BME280;67273;52.914;-0.982;2023-04-29T08:45:47;101665.75;;;19.55;43.88
53550;BME280;67273;52.914;-0.982;2023-04-29T08:48:14;101668.47;;;19.55;43.98
53550;BME280;67273;52.914;-0.982;2023-04-29T08:50:41;101668.69;;;19.53;43.93
53550;BME280;67273;52.914;-0.982;2023-04-29T08:53:09;101677.94;;;19.52;43.93
53550;BME280;67273;52.914;-0.982;2023-04-29T08:55:40;101680.66;;;19.52;43.80
53550;BME280;67273;52.914;-0.982;2023-04-29T08:58:07;101689.88;;;19.51;43.97
53550;BME280;67273;52.914;-0.982;2023-04-29T09:00:33;101681.69;;;19.51;44.02
53550;BME280;67273;52.914;-0.982;2023-04-29T09:03:03;101682.75;;;19.50;43.93
53550;BME280;67273;52.914;-0.982;2023-04-29T09:05:36;101682.75;;;19.50;44.09
53550;BME280;67273;52.914;-0.982;2023-04-29T09:08:03;101681.09;;;19.49;44.02
53550;BME280;67273;52.914;-0.982;2023-04-29T09:10:30;101692.81;;;19.50;43.96
53550;BME280;67273;52.914;-0.982;2023-04-29T09:12:57;101693.84;;;19.49;43.82
53550;BME280;67273;52.914;-0.982;2023-04-29T09:15:23;101693.03;;;19.48;44.02
53550;BME280;67273;52.914;-0.982;2023-04-29T09:17:49;101693.84;;;19.49;43.97
53550;BME280;67273;52.914;-0.982;2023-04-29T09:20:28;101698.28;;;19.50;44.09
53550;BME280;67273;52.914;-0.982;2023-04-29T09:22:55;101699.56;;;19.47;43.84
53550;BME280;67273;52.914;-0.982;2023-04-29T09:25:21;101698.47;;;19.48;44.00
53550;BME280;67273;52.914;-0.982;2023-04-29T09:27:49;101696.19;;;19.45;44.50
53550;BME280;67273;52.914;-0.982;2023-04-29T09:30:15;101701.50;;;19.40;44.62
53550;BME280;67273;52.914;-0.982;2023-04-29T09:32:41;101710.53;;;19.34;44.96
53550;BME280;67273;52.914;-0.982;2023-04-29T09:35:24;101703.41;;;19.33;45.19
53550;BME280;67273;52.914;-0.982;2023-04-29T09:37:50;101704.25;;;19.33;45.77
53550;BME280;67273;52.914;-0.982;2023-04-29T09:40:28;101709.72;;;19.27;45.52
53550;BME280;67273;52.914;-0.982;2023-04-29T09:42:59;101701.34;;;19.28;46.31
53550;BME280;67273;52.914;-0.982;2023-04-29T09:45:32;101704.69;;;19.24;45.85
53550;BME280;67273;52.914;-0.982;2023-04-29T09:48:01;101708.50;;;19.23;46.04
53550;BME280;67273;52.914;-0.982;2023-04-29T09:50:27;101706.81;;;19.22;46.20
53550;BME280;67273;52.914;-0.982;2023-04-29T09:52:53;101705.16;;;19.21;46.33
53550;BME280;67273;52.914;-0.982;2023-04-29T09:55:19;101708.09;;;19.19;46.53
53550;BME280;67273;52.914;-0.982;2023-04-29T09:57:45;101707.25;;;19.18;46.53
53550;BME280;67273;52.914;-0.982;2023-04-29T10:00:13;101711.66;;;19.19;46.66
53550;BME280;67273;52.914;-0.982;2023-04-29T10:02:45;101708.94;;;19.19;46.62
53550;BME280;67273;52.914;-0.982;2023-04-29T10:05:13;101705.16;;;19.21;47.08
53550;BME280;67273;52.914;-0.982;2023-04-29T10:07:39;101710.16;;;19.24;47.00
53550;BME280;67273;52.914;-0.982;2023-04-29T10:10:06;101710.75;;;19.26;48.06
53550;BME280;67273;52.914;-0.982;2023-04-29T10:12:34;101709.50;;;19.28;47.49
53550;BME280;67273;52.914;-0.982;2023-04-29T10:15:03;101709.72;;;19.27;47.75
53550;BME280;67273;52.914;-0.982;2023-04-29T10:17:44;101718.50;;;19.29;48.18
53550;BME280;67273;52.914;-0.982;2023-04-29T10:20:13;101711.41;;;19.28;47.95
53550;BME280;67273;52.914;-0.982;2023-04-29T10:22:45;101710.34;;;19.29;47.80
53550;BME280;67273;52.914;-0.982;2023-04-29T10:25:11;101717.25;;;19.31;48.15
53550;BME280;67273;52.914;-0.982;2023-04-29T10:27:41;101706.75;;;19.35;48.17
53550;BME280;67273;52.914;-0.982;2023-04-29T10:30:09;101713.03;;;19.35;48.09
53550;BME280;67273;52.914;-0.982;2023-04-29T10:32:39;101712.22;;;19.35;48.21
53550;BME280;67273;52.914;-0.982;2023-04-29T10:35:07;101715.53;;;19.37;48.07
53550;BME280;67273;52.914;-0.982;2023-04-29T10:37:34;101713.81;;;19.43;48.52
53550;BME280;67273;52.914;-0.982;2023-04-29T10:40:09;101711.31;;;19.41;48.42
53550;BME280;67273;52.914;-0.982;2023-04-29T10:42:42;101706.53;;;19.36;48.41
53550;BME280;67273;52.914;-0.982;2023-04-29T10:45:25;101707.19;;;19.32;48.39
53550;BME280;67273;52.914;-0.982;2023-04-29T10:48:13;101710.31;;;19.35;48.45
53550;BME280;67273;52.914;-0.982;2023-04-29T10:50:58;101714.94;;;19.35;48.34
53550;BME280;67273;52.914;-0.982;2023-04-29T10:53:26;101713.25;;;19.34;48.46
53550;BME280;67273;52.914;-0.982;2023-04-29T10:55:53;101721.44;;;19.34;48.35
53550;BME280;67273;52.914;-0.982;2023-04-29T10:58:40;101726.88;;;19.34;48.25
53550;BME280;67273;52.914;-0.982;2023-04-29T11:01:09;101721.00;;;19.37;48.44
53550;BME280;67273;52.914;-0.982;2023-04-29T11:03:48;101718.88;;;19.39;48.46
53550;BME280;67273;52.914;-0.982;2023-04-29T11:06:19;101726.41;;;19.44;49.19
53550;BME280;67273;52.914;-0.982;2023-04-29T11:08:45;101724.72;;;19.43;49.42
53550;BME280;67273;52.914;-0.982;2023-04-29T11:11:12;101722.22;;;19.41;49.76
53550;BME280;67273;52.914;-0.982;2023-04-29T11:13:39;101723.50;;;19.38;49.89
53550;BME280;67273;52.914;-0.982;2023-04-29T11:16:06;101716.78;;;19.41;49.90
53550;BME280;67273;52.914;-0.982;2023-04-29T11:18:33;101716.78;;;19.41;49.60
53550;BME280;67273;52.914;-0.982;2023-04-29T11:21:13;101708.16;;;19.44;49.03
53550;BME280;67273;52.914;-0.982;2023-04-29T11:23:39;101719.69;;;19.46;49.05
53550;BME280;67273;52.914;-0.982;2023-04-29T11:26:06;101712.53;;;19.45;49.70
53550;BME280;67273;52.914;-0.982;2023-04-29T11:28:32;101715.66;;;19.49;49.90
53550;BME280;67273;52.914;-0.982;2023-04-29T11:30:58;101713.78;;;19.49;49.88
53550;BME280;67273;52.914;-0.982;2023-04-29T11:33:24;101714.63;;;19.50;51.26
53550;BME280;67273;52.914;-0.982;2023-04-29T11:35:52;101718.00;;;19.45;50.71
53550;BME280;67273;52.914;-0.982;2023-04-29T11:38:24;101718.88;;;19.39;50.60
53550;BME280;67273;52.914;-0.982;2023-04-29T11:40:50;101723.94;;;19.35;50.62
53550;BME280;67273;52.914;-0.982;2023-04-29T11:43:16;101715.97;;;19.34;50.56
53550;BME280;67273;52.914;-0.982;2023-04-29T11:45:43;101718.91;;;19.32;50.39
53550;BME280;67273;52.914;-0.982;2023-04-29T11:48:16;101716.41;;;19.31;50.28
53550;BME280;67273;52.914;-0.982;2023-04-29T11:50:42;101710.94;;;19.31;50.39
53550;BME280;67273;52.914;-0.982;2023-04-29T11:53:08;101718.50;;;19.29;50.32
53550;BME280;67273;52.914;-0.982;2023-04-29T11:55:36;101710.13;;;19.30;50.50
53550;BME280;67273;52.914;-0.982;2023-04-29T11:58:03;101711.31;;;19.41;50.85
53550;BME280;67273;52.914;-0.982;2023-04-29T12:00:29;101710.88;;;19.44;50.74
53550;BME280;67273;52.914;-0.982;2023-04-29T12:02:57;101704.63;;;19.44;51.30
53550;BME280;67273;52.914;-0.982;2023-04-29T12:05:24;101702.50;;;19.46;51.85
53550;BME280;67273;52.914;-0.982;2023-04-29T12:07:50;101707.09;;;19.45;51.11
53550;BME280;67273;52.914;-0.982;2023-04-29T12:10:16;101701.34;;;19.28;50.00
53550;BME280;67273;52.914;-0.982;2023-04-29T12:12:43;101705.59;;;19.17;50.69
53550;BME280;67273;52.914;-0.982;2023-04-29T12:15:12;101708.34;;;19.04;51.38
53550;BME280;67273;52.914;-0.982;2023-04-29T12:17:38;101713.66;;;18.92;51.80
53550;BME280;67273;52.914;-0.982;2023-04-29T12:20:05;101718.31;;;18.85;52.13
53550;BME280;67273;52.914;-0.982;2023-04-29T12:22:32;101705.91;;;18.96;51.67
53550;BME280;67273;52.914;-0.982;2023-04-29T12:24:58;101706.19;;;19.19;51.25
53550;BME280;67273;52.914;-0.982;2023-04-29T12:27:24;101699.44;;;19.29;50.92
53550;BME280;67273;52.914;-0.982;2023-04-29T12:29:52;101702.34;;;19.34;51.44
53550;BME280;67273;52.914;-0.982;2023-04-29T12:32:21;101704.84;;;19.35;51.59
53550;BME280;67273;52.914;-0.982;2023-04-29T12:34:50;101702.53;;;19.39;51.62
53550;BME280;67273;52.914;-0.982;2023-04-29T12:37:17;101707.56;;;19.42;51.46
53550;BME280;67273;52.914;-0.982;2023-04-29T12:39:43;101708.59;;;19.41;51.44
53550;BME280;67273;52.914;-0.982;2023-04-29T12:42:14;101704.22;;;19.40;51.17
53550;BME280;67273;52.914;-0.982;2023-04-29T12:44:40;101704.44;;;19.38;50.85
53550;BME280;67273;52.914;-0.982;2023-04-29T12:47:08;101712.59;;;19.38;50.75